Terminal Aerodrome Forecast
Issued by NWS Cleveland, OH

Home | Current Version | Previous Version | Graphics & Text | Print | Product List | Glossary On
Versions: 1 2 3 4 5 6 7 8 9 10 11 12 13 14 15 16 17 18 19 20 21 22 23 24 25 26 27
094
FTUS41 KCLE 011739
TAFERI
TAF
KERI 011739Z 0118/0218 35006KT 1/4SM FG OVC002
      TEMPO 0118/0121 1SM BR OVC005
     FM012100 01006KT 2SM BR OVC005
     FM020500 03004KT 1SM -SHRA BR OVC004
     FM021200 31007KT 1SM BR OVC003=

USA.gov is the U.S. government's official web portal to all federal, state and local government web resources and services.